sensor_id;sensor_type;location;lat;lon;timestamp;P1;durP1;ratioP1;P2;durP2;ratioP2
18893;SDS011;9579;49.488;8.226;2023-06-26T00:02:04;8.18;;;7.47;;
18893;SDS011;9579;49.488;8.226;2023-06-26T00:04:52;7.50;;;6.80;;
18893;SDS011;9579;49.488;8.226;2023-06-26T00:07:39;8.02;;;7.32;;
18893;SDS011;9579;49.488;8.226;2023-06-26T00:10:26;7.75;;;7.18;;
18893;SDS011;9579;49.488;8.226;2023-06-26T00:13:13;7.95;;;7.30;;
18893;SDS011;9579;49.488;8.226;2023-06-26T00:16:00;8.70;;;8.00;;
18893;SDS011;9579;49.488;8.226;2023-06-26T00:18:48;7.78;;;7.18;;
18893;SDS011;9579;49.488;8.226;2023-06-26T00:21:36;8.20;;;7.50;;
18893;SDS011;9579;49.488;8.226;2023-06-26T00:24:23;8.35;;;7.72;;
18893;SDS011;9579;49.488;8.226;2023-06-26T00:27:10;7.97;;;7.38;;
18893;SDS011;9579;49.488;8.226;2023-06-26T00:29:57;7.45;;;6.85;;
18893;SDS011;9579;49.488;8.226;2023-06-26T00:32:44;7.35;;;6.75;;
18893;SDS011;9579;49.488;8.226;2023-06-26T00:35:31;7.28;;;6.68;;
18893;SDS011;9579;49.488;8.226;2023-06-26T00:38:23;7.90;;;7.30;;
18893;SDS011;9579;49.488;8.226;2023-06-26T00:41:10;7.50;;;6.90;;
18893;SDS011;9579;49.488;8.226;2023-06-26T00:43:58;7.82;;;7.13;;
18893;SDS011;9579;49.488;8.226;2023-06-26T00:46:45;7.53;;;6.93;;
18893;SDS011;9579;49.488;8.226;2023-06-26T00:49:32;7.90;;;7.10;;
18893;SDS011;9579;49.488;8.226;2023-06-26T00:52:19;7.70;;;7.10;;
18893;SDS011;9579;49.488;8.226;2023-06-26T00:55:08;8.45;;;7.82;;
18893;SDS011;9579;49.488;8.226;2023-06-26T00:57:55;9.63;;;7.55;;
18893;SDS011;9579;49.488;8.226;2023-06-26T01:00:42;8.45;;;7.75;;
18893;SDS011;9579;49.488;8.226;2023-06-26T01:03:30;8.65;;;7.85;;
18893;SDS011;9579;49.488;8.226;2023-06-26T01:06:20;8.15;;;7.55;;
18893;SDS011;9579;49.488;8.226;2023-06-26T01:09:12;8.20;;;7.50;;
18893;SDS011;9579;49.488;8.226;2023-06-26T01:12:00;8.48;;;7.60;;
18893;SDS011;9579;49.488;8.226;2023-06-26T01:14:48;8.15;;;7.45;;
18893;SDS011;9579;49.488;8.226;2023-06-26T01:17:36;8.15;;;7.55;;
18893;SDS011;9579;49.488;8.226;2023-06-26T01:20:24;8.13;;;7.43;;
18893;SDS011;9579;49.488;8.226;2023-06-26T01:23:14;8.25;;;7.65;;
18893;SDS011;9579;49.488;8.226;2023-06-26T01:26:13;8.63;;;7.93;;
18893;SDS011;9579;49.488;8.226;2023-06-26T01:29:04;8.70;;;7.90;;
18893;SDS011;9579;49.488;8.226;2023-06-26T01:31:54;9.10;;;8.30;;
18893;SDS011;9579;49.488;8.226;2023-06-26T01:34:41;8.50;;;7.82;;
18893;SDS011;9579;49.488;8.226;2023-06-26T01:37:29;8.40;;;7.70;;
18893;SDS011;9579;49.488;8.226;2023-06-26T01:40:16;8.20;;;7.50;;
18893;SDS011;9579;49.488;8.226;2023-06-26T01:43:05;7.90;;;7.30;;
18893;SDS011;9579;49.488;8.226;2023-06-26T01:45:55;8.38;;;7.68;;
18893;SDS011;9579;49.488;8.226;2023-06-26T01:48:49;8.18;;;7.53;;
18893;SDS011;9579;49.488;8.226;2023-06-26T01:51:42;8.40;;;7.80;;
18893;SDS011;9579;49.488;8.226;2023-06-26T01:54:33;8.68;;;7.97;;
18893;SDS011;9579;49.488;8.226;2023-06-26T01:57:26;8.32;;;7.68;;
18893;SDS011;9579;49.488;8.226;2023-06-26T02:00:17;8.38;;;7.57;;
18893;SDS011;9579;49.488;8.226;2023-06-26T03:25:22;8.95;;;8.18;;
18893;SDS011;9579;49.488;8.226;2023-06-26T03:31:05;9.57;;;8.77;;
18893;SDS011;9579;49.488;8.226;2023-06-26T05:04:44;10.43;;;8.93;;
18893;SDS011;9579;49.488;8.226;2023-06-26T05:07:32;10.90;;;8.38;;
18893;SDS011;9579;49.488;8.226;2023-06-26T05:10:19;11.25;;;8.40;;
18893;SDS011;9579;49.488;8.226;2023-06-26T05:13:06;11.13;;;9.50;;
18893;SDS011;9579;49.488;8.226;2023-06-26T05:15:53;10.48;;;9.25;;
18893;SDS011;9579;49.488;8.226;2023-06-26T05:18:40;11.18;;;10.10;;
18893;SDS011;9579;49.488;8.226;2023-06-26T05:21:29;10.30;;;9.30;;
18893;SDS011;9579;49.488;8.226;2023-06-26T05:24:16;10.88;;;9.30;;
18893;SDS011;9579;49.488;8.226;2023-06-26T05:27:05;11.65;;;9.82;;
18893;SDS011;9579;49.488;8.226;2023-06-26T05:29:53;10.98;;;9.73;;
18893;SDS011;9579;49.488;8.226;2023-06-26T05:32:43;12.65;;;9.70;;
18893;SDS011;9579;49.488;8.226;2023-06-26T05:35:34;12.05;;;10.25;;
18893;SDS011;9579;49.488;8.226;2023-06-26T05:38:25;11.55;;;10.35;;
18893;SDS011;9579;49.488;8.226;2023-06-26T05:41:12;11.88;;;9.43;;
18893;SDS011;9579;49.488;8.226;2023-06-26T05:44:00;11.05;;;9.98;;
18893;SDS011;9579;49.488;8.226;2023-06-26T05:46:47;9.77;;;8.95;;
18893;SDS011;9579;49.488;8.226;2023-06-26T05:49:34;12.10;;;10.02;;
18893;SDS011;9579;49.488;8.226;2023-06-26T05:52:21;11.30;;;10.20;;
18893;SDS011;9579;49.488;8.226;2023-06-26T05:55:11;10.75;;;9.60;;
18893;SDS011;9579;49.488;8.226;2023-06-26T05:57:59;10.98;;;9.88;;
18893;SDS011;9579;49.488;8.226;2023-06-26T06:00:47;11.23;;;10.23;;
18893;SDS011;9579;49.488;8.226;2023-06-26T06:03:34;13.30;;;10.48;;
18893;SDS011;9579;49.488;8.226;2023-06-26T06:06:21;11.40;;;10.20;;
18893;SDS011;9579;49.488;8.226;2023-06-26T06:09:08;11.68;;;9.95;;
18893;SDS011;9579;49.488;8.226;2023-06-26T06:11:59;13.20;;;10.25;;
18893;SDS011;9579;49.488;8.226;2023-06-26T06:14:46;10.93;;;9.70;;
18893;SDS011;9579;49.488;8.226;2023-06-26T06:17:33;10.85;;;9.90;;
18893;SDS011;9579;49.488;8.226;2023-06-26T06:20:20;10.10;;;9.15;;
18893;SDS011;9579;49.488;8.226;2023-06-26T06:23:07;11.38;;;9.68;;
18893;SDS011;9579;49.488;8.226;2023-06-26T06:25:54;12.05;;;10.80;;
18893;SDS011;9579;49.488;8.226;2023-06-26T06:28:43;10.75;;;9.60;;
18893;SDS011;9579;49.488;8.226;2023-06-26T06:31:30;10.05;;;9.05;;
18893;SDS011;9579;49.488;8.226;2023-06-26T06:34:17;13.48;;;10.13;;
18893;SDS011;9579;49.488;8.226;2023-06-26T06:37:04;9.77;;;8.98;;
18893;SDS011;9579;49.488;8.226;2023-06-26T06:39:51;10.93;;;9.93;;
18893;SDS011;9579;49.488;8.226;2023-06-26T06:42:38;10.75;;;9.75;;
18893;SDS011;9579;49.488;8.226;2023-06-26T06:45:27;9.95;;;8.98;;
18893;SDS011;9579;49.488;8.226;2023-06-26T06:48:14;10.82;;;9.82;;
18893;SDS011;9579;49.488;8.226;2023-06-26T06:51:01;10.43;;;9.52;;
18893;SDS011;9579;49.488;8.226;2023-06-26T06:53:48;11.07;;;9.93;;
18893;SDS011;9579;49.488;8.226;2023-06-26T06:56:35;10.40;;;9.40;;
18893;SDS011;9579;49.488;8.226;2023-06-26T06:59:22;9.98;;;9.10;;
18893;SDS011;9579;49.488;8.226;2023-06-26T07:02:11;10.02;;;9.13;;
18893;SDS011;9579;49.488;8.226;2023-06-26T07:04:58;8.82;;;8.10;;
18893;SDS011;9579;49.488;8.226;2023-06-26T07:07:46;9.63;;;8.73;;
18893;SDS011;9579;49.488;8.226;2023-06-26T07:10:33;9.70;;;8.80;;
18893;SDS011;9579;49.488;8.226;2023-06-26T07:13:20;8.68;;;7.88;;
18893;SDS011;9579;49.488;8.226;2023-06-26T07:16:07;8.75;;;7.95;;
18893;SDS011;9579;49.488;8.226;2023-06-26T07:18:58;10.43;;;9.20;;
18893;SDS011;9579;49.488;8.226;2023-06-26T07:21:45;10.80;;;9.27;;
18893;SDS011;9579;49.488;8.226;2023-06-26T07:24:32;9.30;;;8.30;;
18893;SDS011;9579;49.488;8.226;2023-06-26T07:27:19;9.60;;;8.50;;
18893;SDS011;9579;49.488;8.226;2023-06-26T07:30:07;9.40;;;8.50;;
18893;SDS011;9579;49.488;8.226;2023-06-26T07:32:55;8.77;;;7.95;;
18893;SDS011;9579;49.488;8.226;2023-06-26T07:35:44;9.57;;;8.63;;
18893;SDS011;9579;49.488;8.226;2023-06-26T07:38:31;9.90;;;8.30;;
18893;SDS011;9579;49.488;8.226;2023-06-26T07:41:18;8.85;;;7.95;;
18893;SDS011;9579;49.488;8.226;2023-06-26T07:44:05;8.75;;;7.85;;
18893;SDS011;9579;49.488;8.226;2023-06-26T07:46:52;8.07;;;7.38;;
18893;SDS011;9579;49.488;8.226;2023-06-26T07:49:39;8.40;;;7.70;;
18893;SDS011;9579;49.488;8.226;2023-06-26T07:52:27;8.85;;;8.00;;
18893;SDS011;9579;49.488;8.226;2023-06-26T07:55:15;8.20;;;7.38;;
18893;SDS011;9579;49.488;8.226;2023-06-26T07:58:02;8.20;;;7.47;;
18893;SDS011;9579;49.488;8.226;2023-06-26T08:00:49;8.70;;;7.93;;
18893;SDS011;9579;49.488;8.226;2023-06-26T08:03:36;7.45;;;6.90;;
18893;SDS011;9579;49.488;8.226;2023-06-26T08:06:23;8.07;;;7.40;;
18893;SDS011;9579;49.488;8.226;2023-06-26T08:09:12;7.68;;;7.00;;
18893;SDS011;9579;49.488;8.226;2023-06-26T08:11:59;7.70;;;7.10;;
18893;SDS011;9579;49.488;8.226;2023-06-26T08:14:46;8.50;;;7.07;;
18893;SDS011;9579;49.488;8.226;2023-06-26T08:17:34;7.65;;;6.70;;
18893;SDS011;9579;49.488;8.226;2023-06-26T08:20:21;7.68;;;6.97;;
18893;SDS011;9579;49.488;8.226;2023-06-26T08:23:08;6.88;;;6.38;;
18893;SDS011;9579;49.488;8.226;2023-06-26T08:25:57;7.13;;;6.60;;
18893;SDS011;9579;49.488;8.226;2023-06-26T08:28:44;7.00;;;6.40;;
18893;SDS011;9579;49.488;8.226;2023-06-26T08:31:31;6.90;;;6.30;;
18893;SDS011;9579;49.488;8.226;2023-06-26T08:34:19;7.05;;;6.55;;
18893;SDS011;9579;49.488;8.226;2023-06-26T08:37:06;7.57;;;6.95;;
18893;SDS011;9579;49.488;8.226;2023-06-26T08:39:54;7.10;;;6.50;;
18893;SDS011;9579;49.488;8.226;2023-06-26T08:42:42;7.70;;;7.00;;
18893;SDS011;9579;49.488;8.226;2023-06-26T08:45:29;7.28;;;6.68;;
18893;SDS011;9579;49.488;8.226;2023-06-26T08:48:17;8.27;;;7.25;;
18893;SDS011;9579;49.488;8.226;2023-06-26T08:51:05;8.02;;;7.25;;
18893;SDS011;9579;49.488;8.226;2023-06-26T08:53:56;7.38;;;6.60;;
18893;SDS011;9579;49.488;8.226;2023-06-26T08:56:44;7.43;;;6.82;;
18893;SDS011;9579;49.488;8.226;2023-06-26T08:59:35;7.47;;;6.88;;
18893;SDS011;9579;49.488;8.226;2023-06-26T09:02:22;7.45;;;6.80;;
18893;SDS011;9579;49.488;8.226;2023-06-26T09:05:10;8.02;;;7.32;;
18893;SDS011;9579;49.488;8.226;2023-06-26T09:07:57;8.30;;;7.53;;
18893;SDS011;9579;49.488;8.226;2023-06-26T09:10:45;7.28;;;6.68;;
18893;SDS011;9579;49.488;8.226;2023-06-26T09:13:31;7.88;;;7.18;;
18893;SDS011;9579;49.488;8.226;2023-06-26T09:16:24;7.72;;;7.05;;
18893;SDS011;9579;49.488;8.226;2023-06-26T09:19:12;8.10;;;7.43;;
18893;SDS011;9579;49.488;8.226;2023-06-26T09:22:00;8.45;;;7.72;;
18893;SDS011;9579;49.488;8.226;2023-06-26T09:24:47;8.65;;;7.75;;
18893;SDS011;9579;49.488;8.226;2023-06-26T09:27:34;9.15;;;7.40;;
18893;SDS011;9579;49.488;8.226;2023-06-26T09:30:22;8.45;;;7.82;;
18893;SDS011;9579;49.488;8.226;2023-06-26T09:33:16;7.47;;;6.88;;
18893;SDS011;9579;49.488;8.226;2023-06-26T09:36:05;9.07;;;8.23;;
18893;SDS011;9579;49.488;8.226;2023-06-26T09:38:55;8.30;;;7.60;;
18893;SDS011;9579;49.488;8.226;2023-06-26T09:41:42;8.15;;;7.45;;
18893;SDS011;9579;49.488;8.226;2023-06-26T09:44:30;8.75;;;7.95;;
18893;SDS011;9579;49.488;8.226;2023-06-26T09:47:18;8.70;;;7.90;;
18893;SDS011;9579;49.488;8.226;2023-06-26T09:50:08;8.38;;;7.68;;
18893;SDS011;9579;49.488;8.226;2023-06-26T09:53:07;9.13;;;8.43;;
18893;SDS011;9579;49.488;8.226;2023-06-26T09:55:55;8.88;;;8.00;;
18893;SDS011;9579;49.488;8.226;2023-06-26T09:58:42;8.60;;;7.90;;
18893;SDS011;9579;49.488;8.226;2023-06-26T10:01:30;8.52;;;7.82;;
18893;SDS011;9579;49.488;8.226;2023-06-26T10:04:18;9.48;;;8.40;;
18893;SDS011;9579;49.488;8.226;2023-06-26T10:07:08;8.40;;;7.70;;
18893;SDS011;9579;49.488;8.226;2023-06-26T10:09:57;9.07;;;8.27;;
18893;SDS011;9579;49.488;8.226;2023-06-26T10:12:48;9.38;;;8.48;;
18893;SDS011;9579;49.488;8.226;2023-06-26T10:15:36;8.35;;;7.55;;
18893;SDS011;9579;49.488;8.226;2023-06-26T10:18:24;8.90;;;8.02;;
18893;SDS011;9579;49.488;8.226;2023-06-26T10:21:12;8.35;;;7.65;;
18893;SDS011;9579;49.488;8.226;2023-06-26T10:24:01;8.07;;;7.30;;
18893;SDS011;9579;49.488;8.226;2023-06-26T10:26:52;8.23;;;7.55;;
18893;SDS011;9579;49.488;8.226;2023-06-26T10:29:44;8.15;;;7.35;;
18893;SDS011;9579;49.488;8.226;2023-06-26T10:32:35;8.05;;;7.30;;
18893;SDS011;9579;49.488;8.226;2023-06-26T10:35:23;8.00;;;7.30;;
18893;SDS011;9579;49.488;8.226;2023-06-26T10:38:11;7.57;;;6.88;;
18893;SDS011;9579;49.488;8.226;2023-06-26T10:40:59;7.45;;;6.53;;
18893;SDS011;9579;49.488;8.226;2023-06-26T10:44:06;7.22;;;6.53;;
18893;SDS011;9579;49.488;8.226;2023-06-26T10:46:54;7.10;;;6.40;;
18893;SDS011;9579;49.488;8.226;2023-06-26T10:49:43;6.80;;;6.18;;
18893;SDS011;9579;49.488;8.226;2023-06-26T10:52:36;6.80;;;6.30;;
18893;SDS011;9579;49.488;8.226;2023-06-26T10:55:27;6.95;;;6.35;;
18893;SDS011;9579;49.488;8.226;2023-06-26T11:01:26;6.32;;;5.72;;
18893;SDS011;9579;49.488;8.226;2023-06-26T11:04:13;6.93;;;6.25;;
18893;SDS011;9579;49.488;8.226;2023-06-26T11:07:14;7.30;;;6.70;;
18893;SDS011;9579;49.488;8.226;2023-06-26T11:10:02;6.10;;;5.60;;
18893;SDS011;9579;49.488;8.226;2023-06-26T11:12:55;7.05;;;6.45;;
18893;SDS011;9579;49.488;8.226;2023-06-26T11:15:46;6.45;;;5.93;;
18893;SDS011;9579;49.488;8.226;2023-06-26T11:18:34;6.68;;;6.18;;
18893;SDS011;9579;49.488;8.226;2023-06-26T11:21:21;8.40;;;6.07;;
18893;SDS011;9579;49.488;8.226;2023-06-26T11:24:10;6.72;;;6.15;;
18893;SDS011;9579;49.488;8.226;2023-06-26T11:27:01;6.20;;;5.80;;
18893;SDS011;9579;49.488;8.226;2023-06-26T11:29:49;8.13;;;5.60;;
18893;SDS011;9579;49.488;8.226;2023-06-26T11:32:37;6.32;;;5.72;;
18893;SDS011;9579;49.488;8.226;2023-06-26T11:35:25;7.93;;;6.07;;
18893;SDS011;9579;49.488;8.226;2023-06-26T11:38:15;6.28;;;5.78;;
18893;SDS011;9579;49.488;8.226;2023-06-26T11:41:02;7.38;;;5.95;;
18893;SDS011;9579;49.488;8.226;2023-06-26T11:43:53;7.07;;;6.43;;
18893;SDS011;9579;49.488;8.226;2023-06-26T11:46:40;7.00;;;6.30;;
18893;SDS011;9579;49.488;8.226;2023-06-26T11:49:29;8.68;;;6.47;;
18893;SDS011;9579;49.488;8.226;2023-06-26T11:52:23;7.57;;;6.13;;
18893;SDS011;9579;49.488;8.226;2023-06-26T11:55:10;8.05;;;6.53;;
18893;SDS011;9579;49.488;8.226;2023-06-26T11:57:57;8.32;;;7.63;;
18893;SDS011;9579;49.488;8.226;2023-06-26T12:00:47;7.90;;;7.30;;
18893;SDS011;9579;49.488;8.226;2023-06-26T12:03:34;7.50;;;6.85;;
18893;SDS011;9579;49.488;8.226;2023-06-26T12:06:22;9.07;;;7.15;;
18893;SDS011;9579;49.488;8.226;2023-06-26T12:09:10;8.57;;;7.80;;
18893;SDS011;9579;49.488;8.226;2023-06-26T12:11:58;8.10;;;7.45;;
18893;SDS011;9579;49.488;8.226;2023-06-26T12:14:46;8.88;;;8.02;;
18893;SDS011;9579;49.488;8.226;2023-06-26T12:17:33;10.15;;;9.15;;
18893;SDS011;9579;49.488;8.226;2023-06-26T12:20:25;10.93;;;9.88;;
18893;SDS011;9579;49.488;8.226;2023-06-26T12:23:17;11.30;;;10.13;;
18893;SDS011;9579;49.488;8.226;2023-06-26T12:29:10;9.48;;;8.52;;
18893;SDS011;9579;49.488;8.226;2023-06-26T12:31:59;10.10;;;9.20;;
18893;SDS011;9579;49.488;8.226;2023-06-26T12:34:47;10.30;;;9.30;;
18893;SDS011;9579;49.488;8.226;2023-06-26T12:37:36;10.82;;;9.93;;
18893;SDS011;9579;49.488;8.226;2023-06-26T12:40:27;10.15;;;9.18;;
18893;SDS011;9579;49.488;8.226;2023-06-26T12:43:22;9.57;;;8.60;;
18893;SDS011;9579;49.488;8.226;2023-06-26T12:46:10;10.63;;;9.63;;
18893;SDS011;9579;49.488;8.226;2023-06-26T12:48:57;10.13;;;9.23;;
18893;SDS011;9579;49.488;8.226;2023-06-26T12:51:45;10.90;;;9.18;;
18893;SDS011;9579;49.488;8.226;2023-06-26T12:54:33;9.00;;;8.10;;
18893;SDS011;9579;49.488;8.226;2023-06-26T12:57:21;8.48;;;7.78;;
18893;SDS011;9579;49.488;8.226;2023-06-26T13:00:09;8.60;;;7.80;;
18893;SDS011;9579;49.488;8.226;2023-06-26T13:02:57;8.73;;;7.60;;
18893;SDS011;9579;49.488;8.226;2023-06-26T13:05:44;7.40;;;6.68;;
18893;SDS011;9579;49.488;8.226;2023-06-26T13:08:32;6.70;;;6.00;;
18893;SDS011;9579;49.488;8.226;2023-06-26T13:11:19;6.05;;;5.55;;
18893;SDS011;9579;49.488;8.226;2023-06-26T13:14:09;6.35;;;4.97;;
18893;SDS011;9579;49.488;8.226;2023-06-26T13:16:56;6.60;;;4.30;;
18893;SDS011;9579;49.488;8.226;2023-06-26T13:19:43;6.30;;;4.88;;
18893;SDS011;9579;49.488;8.226;2023-06-26T13:22:30;5.88;;;4.20;;
18893;SDS011;9579;49.488;8.226;2023-06-26T13:25:17;7.65;;;3.88;;
18893;SDS011;9579;49.488;8.226;2023-06-26T13:28:04;5.88;;;3.38;;
18893;SDS011;9579;49.488;8.226;2023-06-26T13:30:52;4.00;;;3.45;;
18893;SDS011;9579;49.488;8.226;2023-06-26T13:33:39;5.50;;;3.63;;
18893;SDS011;9579;49.488;8.226;2023-06-26T13:36:27;3.70;;;3.40;;
18893;SDS011;9579;49.488;8.226;2023-06-26T13:39:14;4.45;;;3.30;;
18893;SDS011;9579;49.488;8.226;2023-06-26T13:42:01;5.22;;;2.85;;
18893;SDS011;9579;49.488;8.226;2023-06-26T13:44:48;3.70;;;2.85;;
18893;SDS011;9579;49.488;8.226;2023-06-26T13:47:36;4.30;;;3.08;;
18893;SDS011;9579;49.488;8.226;2023-06-26T13:50:26;3.83;;;2.97;;
18893;SDS011;9579;49.488;8.226;2023-06-26T13:53:13;4.78;;;3.35;;
18893;SDS011;9579;49.488;8.226;2023-06-26T13:56:00;3.15;;;2.95;;
18893;SDS011;9579;49.488;8.226;2023-06-26T13:58:47;5.50;;;3.08;;
18893;SDS011;9579;49.488;8.226;2023-06-26T14:01:34;4.03;;;2.70;;
18893;SDS011;9579;49.488;8.226;2023-06-26T14:04:23;4.72;;;2.95;;
18893;SDS011;9579;49.488;8.226;2023-06-26T14:07:10;4.35;;;2.80;;
18893;SDS011;9579;49.488;8.226;2023-06-26T14:09:57;4.55;;;2.65;;
18893;SDS011;9579;49.488;8.226;2023-06-26T14:12:44;3.30;;;2.72;;
18893;SDS011;9579;49.488;8.226;2023-06-26T14:15:31;4.05;;;3.08;;
18893;SDS011;9579;49.488;8.226;2023-06-26T14:18:19;5.78;;;3.10;;
18893;SDS011;9579;49.488;8.226;2023-06-26T14:21:07;6.28;;;3.03;;
18893;SDS011;9579;49.488;8.226;2023-06-26T14:23:55;4.20;;;2.90;;
18893;SDS011;9579;49.488;8.226;2023-06-26T14:26:42;3.58;;;2.60;;
18893;SDS011;9579;49.488;8.226;2023-06-26T14:29:29;3.10;;;2.65;;
18893;SDS011;9579;49.488;8.226;2023-06-26T14:32:16;3.65;;;2.70;;
18893;SDS011;9579;49.488;8.226;2023-06-26T14:35:03;4.82;;;2.80;;
18893;SDS011;9579;49.488;8.226;2023-06-26T14:37:52;4.13;;;2.67;;
18893;SDS011;9579;49.488;8.226;2023-06-26T14:40:39;4.03;;;2.47;;
18893;SDS011;9579;49.488;8.226;2023-06-26T14:43:26;3.35;;;2.72;;
18893;SDS011;9579;49.488;8.226;2023-06-26T14:46:13;3.33;;;3.03;;
18893;SDS011;9579;49.488;8.226;2023-06-26T14:49:00;4.30;;;2.88;;
18893;SDS011;9579;49.488;8.226;2023-06-26T14:51:47;3.85;;;3.00;;
18893;SDS011;9579;49.488;8.226;2023-06-26T14:54:36;4.25;;;2.85;;
18893;SDS011;9579;49.488;8.226;2023-06-26T14:57:23;4.05;;;3.00;;
18893;SDS011;9579;49.488;8.226;2023-06-26T15:00:10;4.97;;;2.85;;
18893;SDS011;9579;49.488;8.226;2023-06-26T15:02:58;3.92;;;3.08;;
18893;SDS011;9579;49.488;8.226;2023-06-26T15:05:45;6.40;;;3.00;;
18893;SDS011;9579;49.488;8.226;2023-06-26T15:08:32;4.38;;;3.05;;
18893;SDS011;9579;49.488;8.226;2023-06-26T15:11:20;3.88;;;2.85;;
18893;SDS011;9579;49.488;8.226;2023-06-26T15:14:07;4.22;;;2.85;;
18893;SDS011;9579;49.488;8.226;2023-06-26T15:16:54;5.95;;;3.13;;
18893;SDS011;9579;49.488;8.226;2023-06-26T15:19:41;4.00;;;2.60;;
18893;SDS011;9579;49.488;8.226;2023-06-26T15:22:28;4.70;;;3.00;;
18893;SDS011;9579;49.488;8.226;2023-06-26T15:25:15;7.03;;;2.83;;
18893;SDS011;9579;49.488;8.226;2023-06-26T15:28:04;4.07;;;2.60;;
18893;SDS011;9579;49.488;8.226;2023-06-26T15:30:53;2.92;;;2.63;;
18893;SDS011;9579;49.488;8.226;2023-06-26T15:33:40;3.60;;;2.58;;
18893;SDS011;9579;49.488;8.226;2023-06-26T15:36:27;6.40;;;2.80;;
18893;SDS011;9579;49.488;8.226;2023-06-26T15:39:15;3.83;;;2.65;;
18893;SDS011;9579;49.488;8.226;2023-06-26T15:42:02;4.88;;;2.50;;
18893;SDS011;9579;49.488;8.226;2023-06-26T15:44:51;3.40;;;2.42;;
18893;SDS011;9579;49.488;8.226;2023-06-26T15:47:38;2.67;;;2.30;;
18893;SDS011;9579;49.488;8.226;2023-06-26T15:50:25;2.85;;;2.35;;
18893;SDS011;9579;49.488;8.226;2023-06-26T15:53:15;4.05;;;2.60;;
18893;SDS011;9579;49.488;8.226;2023-06-26T15:56:05;4.72;;;2.65;;
18893;SDS011;9579;49.488;8.226;2023-06-26T15:58:53;4.85;;;2.50;;
18893;SDS011;9579;49.488;8.226;2023-06-26T16:01:41;4.60;;;2.67;;
18893;SDS011;9579;49.488;8.226;2023-06-26T16:04:29;3.92;;;2.38;;
18893;SDS011;9579;49.488;8.226;2023-06-26T16:07:18;3.95;;;2.33;;
18893;SDS011;9579;49.488;8.226;2023-06-26T16:10:05;2.97;;;2.55;;
18893;SDS011;9579;49.488;8.226;2023-06-26T16:12:53;2.72;;;2.20;;
18893;SDS011;9579;49.488;8.226;2023-06-26T16:15:40;2.88;;;2.00;;
18893;SDS011;9579;49.488;8.226;2023-06-26T16:18:28;4.05;;;2.20;;
18893;SDS011;9579;49.488;8.226;2023-06-26T16:21:15;3.13;;;2.50;;
18893;SDS011;9579;49.488;8.226;2023-06-26T16:24:03;2.75;;;2.20;;
18893;SDS011;9579;49.488;8.226;2023-06-26T16:26:50;3.65;;;2.30;;
18893;SDS011;9579;49.488;8.226;2023-06-26T16:29:37;3.35;;;2.20;;
18893;SDS011;9579;49.488;8.226;2023-06-26T16:32:24;2.83;;;2.28;;
18893;SDS011;9579;49.488;8.226;2023-06-26T16:35:13;3.80;;;2.58;;
18893;SDS011;9579;49.488;8.226;2023-06-26T16:38:00;4.75;;;2.25;;
18893;SDS011;9579;49.488;8.226;2023-06-26T16:40:47;4.50;;;2.25;;
18893;SDS011;9579;49.488;8.226;2023-06-26T16:43:34;3.05;;;2.30;;
18893;SDS011;9579;49.488;8.226;2023-06-26T16:46:21;4.30;;;2.40;;
18893;SDS011;9579;49.488;8.226;2023-06-26T16:49:08;4.20;;;2.50;;
18893;SDS011;9579;49.488;8.226;2023-06-26T16:51:57;4.80;;;2.65;;
18893;SDS011;9579;49.488;8.226;2023-06-26T16:54:46;3.78;;;2.10;;
18893;SDS011;9579;49.488;8.226;2023-06-26T16:57:33;3.38;;;2.50;;
18893;SDS011;9579;49.488;8.226;2023-06-26T17:00:20;2.75;;;2.20;;
18893;SDS011;9579;49.488;8.226;2023-06-26T17:03:07;3.95;;;2.47;;
18893;SDS011;9579;49.488;8.226;2023-06-26T17:05:54;3.60;;;2.60;;
18893;SDS011;9579;49.488;8.226;2023-06-26T17:08:42;4.13;;;2.45;;
18893;SDS011;9579;49.488;8.226;2023-06-26T17:11:30;3.67;;;2.20;;
18893;SDS011;9579;49.488;8.226;2023-06-26T17:14:17;4.47;;;2.60;;
18893;SDS011;9579;49.488;8.226;2023-06-26T17:17:04;2.55;;;2.13;;
18893;SDS011;9579;49.488;8.226;2023-06-26T17:19:51;4.35;;;2.20;;
18893;SDS011;9579;49.488;8.226;2023-06-26T17:22:39;4.47;;;2.20;;
18893;SDS011;9579;49.488;8.226;2023-06-26T17:25:30;5.57;;;2.30;;
18893;SDS011;9579;49.488;8.226;2023-06-26T17:28:19;5.38;;;2.60;;
18893;SDS011;9579;49.488;8.226;2023-06-26T17:31:06;5.63;;;2.50;;
18893;SDS011;9579;49.488;8.226;2023-06-26T17:33:53;5.10;;;2.50;;
18893;SDS011;9579;49.488;8.226;2023-06-26T17:36:40;7.47;;;2.53;;
18893;SDS011;9579;49.488;8.226;2023-06-26T17:39:29;2.50;;;2.08;;
18893;SDS011;9579;49.488;8.226;2023-06-26T17:42:17;5.10;;;2.40;;
18893;SDS011;9579;49.488;8.226;2023-06-26T17:45:05;4.25;;;2.30;;
18893;SDS011;9579;49.488;8.226;2023-06-26T17:47:53;6.05;;;2.60;;
18893;SDS011;9579;49.488;8.226;2023-06-26T17:50:40;4.07;;;2.20;;
18893;SDS011;9579;49.488;8.226;2023-06-26T17:53:27;4.93;;;2.20;;
18893;SDS011;9579;49.488;8.226;2023-06-26T17:56:14;3.08;;;2.20;;
18893;SDS011;9579;49.488;8.226;2023-06-26T17:59:02;3.40;;;2.15;;
18893;SDS011;9579;49.488;8.226;2023-06-26T18:01:49;3.17;;;2.30;;
18893;SDS011;9579;49.488;8.226;2023-06-26T18:04:36;3.72;;;2.10;;
18893;SDS011;9579;49.488;8.226;2023-06-26T18:07:23;3.50;;;2.10;;
18893;SDS011;9579;49.488;8.226;2023-06-26T18:10:10;2.95;;;2.25;;
18893;SDS011;9579;49.488;8.226;2023-06-26T18:12:57;4.22;;;2.08;;
18893;SDS011;9579;49.488;8.226;2023-06-26T18:15:46;4.15;;;2.60;;
18893;SDS011;9579;49.488;8.226;2023-06-26T18:18:33;2.65;;;2.13;;
18893;SDS011;9579;49.488;8.226;2023-06-26T18:21:21;3.75;;;2.38;;
18893;SDS011;9579;49.488;8.226;2023-06-26T18:24:10;4.40;;;2.50;;
18893;SDS011;9579;49.488;8.226;2023-06-26T18:26:57;3.20;;;2.13;;
18893;SDS011;9579;49.488;8.226;2023-06-26T18:29:44;4.47;;;2.28;;
18893;SDS011;9579;49.488;8.226;2023-06-26T18:32:32;5.28;;;2.40;;
18893;SDS011;9579;49.488;8.226;2023-06-26T18:35:19;2.88;;;2.10;;
18893;SDS011;9579;49.488;8.226;2023-06-26T18:38:06;4.00;;;2.05;;
18893;SDS011;9579;49.488;8.226;2023-06-26T18:40:56;3.78;;;2.05;;
18893;SDS011;9579;49.488;8.226;2023-06-26T18:43:43;4.30;;;2.40;;
18893;SDS011;9579;49.488;8.226;2023-06-26T18:46:32;3.20;;;2.33;;
18893;SDS011;9579;49.488;8.226;2023-06-26T18:49:21;3.15;;;2.10;;
18893;SDS011;9579;49.488;8.226;2023-06-26T18:52:08;2.92;;;2.22;;
18893;SDS011;9579;49.488;8.226;2023-06-26T18:54:55;2.72;;;2.20;;
18893;SDS011;9579;49.488;8.226;2023-06-26T18:57:42;3.10;;;2.05;;
18893;SDS011;9579;49.488;8.226;2023-06-26T19:00:29;6.80;;;2.60;;
18893;SDS011;9579;49.488;8.226;2023-06-26T19:03:17;4.10;;;2.25;;
18893;SDS011;9579;49.488;8.226;2023-06-26T19:06:05;5.35;;;2.42;;
18893;SDS011;9579;49.488;8.226;2023-06-26T19:08:52;2.55;;;2.10;;
18893;SDS011;9579;49.488;8.226;2023-06-26T19:11:39;2.45;;;2.13;;
18893;SDS011;9579;49.488;8.226;2023-06-26T19:14:26;2.70;;;2.13;;
18893;SDS011;9579;49.488;8.226;2023-06-26T19:17:14;2.83;;;2.30;;
18893;SDS011;9579;49.488;8.226;2023-06-26T19:20:03;3.03;;;1.92;;
18893;SDS011;9579;49.488;8.226;2023-06-26T19:22:51;3.45;;;2.20;;
18893;SDS011;9579;49.488;8.226;2023-06-26T19:25:40;2.33;;;2.10;;
18893;SDS011;9579;49.488;8.226;2023-06-26T19:28:27;2.97;;;2.15;;
18893;SDS011;9579;49.488;8.226;2023-06-26T19:31:14;3.45;;;2.28;;
18893;SDS011;9579;49.488;8.226;2023-06-26T19:34:01;2.03;;;1.73;;
18893;SDS011;9579;49.488;8.226;2023-06-26T19:36:48;2.83;;;2.20;;
18893;SDS011;9579;49.488;8.226;2023-06-26T19:39:37;3.05;;;2.10;;
18893;SDS011;9579;49.488;8.226;2023-06-26T19:42:25;2.30;;;1.88;;
18893;SDS011;9579;49.488;8.226;2023-06-26T19:45:12;2.83;;;2.03;;
18893;SDS011;9579;49.488;8.226;2023-06-26T19:47:59;2.33;;;2.13;;
18893;SDS011;9579;49.488;8.226;2023-06-26T19:50:46;2.45;;;1.92;;
18893;SDS011;9579;49.488;8.226;2023-06-26T19:53:33;3.75;;;2.50;;
18893;SDS011;9579;49.488;8.226;2023-06-26T19:56:21;3.17;;;2.20;;
18893;SDS011;9579;49.488;8.226;2023-06-26T19:59:10;3.00;;;2.33;;
18893;SDS011;9579;49.488;8.226;2023-06-26T20:01:57;2.70;;;2.13;;
18893;SDS011;9579;49.488;8.226;2023-06-26T20:04:44;4.25;;;2.35;;
18893;SDS011;9579;49.488;8.226;2023-06-26T20:07:31;4.45;;;2.20;;